createdAt,value
2023-03-06T00:00:14.853Z,1.10
2023-03-06T00:06:23.487Z,0.50
2023-03-06T00:24:55.770Z,0.20
2023-03-06T00:27:59.056Z,0.30
2023-03-06T00:31:04.583Z,0.10
2023-03-06T00:37:11.460Z,0.40
2023-03-06T00:40:26.474Z,1.80
2023-03-06T00:43:42.040Z,0.30
2023-03-06T00:46:47.572Z,0.40
2023-03-06T00:49:52.002Z,0.40
2023-03-06T01:49:18.500Z,0.00
2023-03-06T01:52:26.417Z,0.00
2023-03-06T01:58:46.226Z,0.10
2023-03-06T02:01:51.461Z,-0.10
2023-03-06T02:04:56.826Z,-0.30
2023-03-06T02:11:15.127Z,1.30
2023-03-06T02:14:19.725Z,-1.60
2023-03-06T02:17:25.427Z,2.10
2023-03-06T02:20:38.072Z,0.00
2023-03-06T02:23:57.632Z,-0.10
2023-03-06T02:27:05.843Z,-0.20
2023-03-06T02:30:13.512Z,0.00
2023-03-06T02:33:19.542Z,0.10
2023-03-06T02:39:31.928Z,2.00
2023-03-06T02:42:38.660Z,0.10
2023-03-06T02:45:53.289Z,0.10
2023-03-06T03:07:25.022Z,0.50
2023-03-06T03:35:10.694Z,2.90
2023-03-06T03:56:41.828Z,2.20
2023-03-06T03:59:46.812Z,-0.10
2023-03-06T04:05:55.482Z,-0.10
2023-03-06T04:12:06.531Z,-0.20
2023-03-06T04:15:12.394Z,-0.30
2023-03-06T04:24:27.002Z,-0.30
2023-03-06T04:30:35.962Z,-0.40
2023-03-06T04:33:40.062Z,2.10
2023-03-06T04:36:45.217Z,-0.60
2023-03-06T04:39:49.449Z,-0.60
2023-03-06T04:42:52.841Z,-4.50
2023-03-06T04:45:59.637Z,-0.60
2023-03-06T04:52:07.918Z,0.90
2023-03-06T04:55:14.814Z,1.70
2023-03-06T05:01:24.842Z,0.20
2023-03-06T05:04:28.788Z,-4.30
2023-03-06T05:07:39.969Z,-0.40
2023-03-06T05:13:49.445Z,-0.70
2023-03-06T05:16:53.950Z,1.30
2023-03-06T05:19:57.909Z,-0.50
2023-03-06T05:23:02.615Z,-0.50
2023-03-06T05:26:10.839Z,-0.70
2023-03-06T05:29:14.726Z,-0.60
2023-03-06T05:32:19.712Z,0.70
2023-03-06T05:35:25.775Z,-0.80
2023-03-06T05:38:30.163Z,-1.50
2023-03-06T05:44:42.075Z,-0.80
2023-03-06T05:47:49.957Z,0.70
2023-03-06T05:50:59.174Z,2.50
2023-03-06T05:54:03.225Z,-0.60
2023-03-06T05:57:06.750Z,-0.10
2023-03-06T06:00:14.700Z,-0.70
2023-03-06T06:03:19.328Z,-0.60
2023-03-06T06:06:22.196Z,-0.50
2023-03-06T06:09:26.057Z,0.20
2023-03-06T06:12:28.854Z,-0.50
2023-03-06T06:15:32.069Z,-0.30
2023-03-06T06:19:03.714Z,-0.40
2023-03-06T06:22:08.336Z,-0.70
2023-03-06T06:25:12.045Z,-2.30
2023-03-06T06:28:15.913Z,-0.30
2023-03-06T06:31:19.158Z,-0.30
2023-03-06T06:34:24.990Z,3.30
2023-03-06T06:37:28.788Z,-0.20
2023-03-06T06:40:32.307Z,1.50
2023-03-06T06:43:37.228Z,-0.20
2023-03-06T06:50:08.115Z,0.00
2023-03-06T06:53:11.586Z,1.40
2023-03-06T06:56:15.412Z,0.20
2023-03-06T06:59:18.693Z,0.30
2023-03-06T07:02:22.190Z,0.40
2023-03-06T07:05:26.931Z,-0.60
2023-03-06T07:08:30.872Z,-0.40
2023-03-06T07:11:34.557Z,0.70
2023-03-06T07:14:41.441Z,2.90
2023-03-06T07:17:45.350Z,1.30
2023-03-06T07:20:54.724Z,1.70
2023-03-06T07:24:00.463Z,2.10
2023-03-06T07:27:03.855Z,2.50
2023-03-06T07:30:09.577Z,4.00
2023-03-06T07:33:14.372Z,3.30
2023-03-06T07:36:20.500Z,3.60
2023-03-06T07:39:24.416Z,3.80
2023-03-06T07:42:29.472Z,6.60
2023-03-06T07:45:33.345Z,1.90
2023-03-06T07:48:37.999Z,3.90
2023-03-06T07:51:42.635Z,4.00
2023-03-06T07:54:46.099Z,4.10
2023-03-06T07:57:52.506Z,4.10
2023-03-06T08:00:56.071Z,4.10
2023-03-06T08:04:02.288Z,4.20
2023-03-06T08:07:07.482Z,4.20
2023-03-06T08:10:15.140Z,4.40
2023-03-06T08:13:18.482Z,4.40
2023-03-06T08:16:33.970Z,4.50
2023-03-06T08:19:39.809Z,4.60
2023-03-06T08:22:45.044Z,4.80
2023-03-06T08:25:57.071Z,4.80
2023-03-06T08:29:03.621Z,5.00
2023-03-06T08:32:07.906Z,5.10
2023-03-06T08:35:12.184Z,3.90
2023-03-06T08:38:22.016Z,5.30
2023-03-06T08:41:28.703Z,6.80
2023-03-06T08:44:33.057Z,5.40
2023-03-06T08:47:41.922Z,5.50
2023-03-06T08:50:45.576Z,5.60
2023-03-06T08:53:53.275Z,5.70
2023-03-06T08:56:56.852Z,5.90
2023-03-06T09:00:00.452Z,5.90
2023-03-06T09:03:06.610Z,5.90
2023-03-06T09:06:10.209Z,6.00
2023-03-06T09:09:15.799Z,7.10
2023-03-06T09:12:19.375Z,6.40
2023-03-06T09:15:29.336Z,6.90
2023-03-06T09:18:32.817Z,6.20
2023-03-06T09:21:36.038Z,6.40
2023-03-06T09:24:40.888Z,6.40
2023-03-06T09:27:44.352Z,6.50
2023-03-06T09:30:48.596Z,7.00
2023-03-06T09:33:52.066Z,6.70
2023-03-06T09:36:57.697Z,6.70
2023-03-06T09:40:04.229Z,6.70
2023-03-06T09:43:21.850Z,6.70
2023-03-06T09:46:39.577Z,8.20
2023-03-06T09:50:01.717Z,7.00
2023-03-06T09:53:26.612Z,6.80
2023-03-06T09:56:40.850Z,6.90
2023-03-06T09:59:55.682Z,6.90
2023-03-06T10:03:15.840Z,6.90
2023-03-06T10:06:28.066Z,7.00
2023-03-06T10:09:45.962Z,6.90
2023-03-06T10:13:07.599Z,6.90
2023-03-06T10:16:30.374Z,7.00
2023-03-06T10:19:37.834Z,7.10
2023-03-06T10:23:00.555Z,7.20
2023-03-06T10:26:18.406Z,7.20
2023-03-06T10:29:56.358Z,7.20
2023-03-06T10:33:19.078Z,7.10
2023-03-06T10:36:27.939Z,7.10
2023-03-06T10:39:31.728Z,7.10
2023-03-06T10:42:35.580Z,7.10
2023-03-06T10:45:51.349Z,7.20
2023-03-06T10:49:00.793Z,7.20
2023-03-06T10:52:08.398Z,7.30
2023-03-06T10:55:28.425Z,6.50
2023-03-06T10:58:34.137Z,7.60
2023-03-06T11:01:41.155Z,7.70
2023-03-06T11:04:54.376Z,7.60
2023-03-06T11:08:00.609Z,7.70
2023-03-06T11:11:12.681Z,7.70
2023-03-06T11:14:19.479Z,7.70
2023-03-06T11:17:32.143Z,8.60
2023-03-06T11:20:51.608Z,7.70
2023-03-06T11:24:01.947Z,7.70
2023-03-06T11:27:23.224Z,7.50
2023-03-06T11:30:35.940Z,7.70
2023-03-06T11:33:50.911Z,7.70
2023-03-06T11:37:02.200Z,7.60
2023-03-06T11:40:18.845Z,7.50
2023-03-06T11:43:35.212Z,8.20
2023-03-06T11:46:43.361Z,7.50
2023-03-06T11:50:02.306Z,7.10
2023-03-06T11:53:11.870Z,7.10
2023-03-06T11:56:35.923Z,6.30
2023-03-06T12:00:12.588Z,7.00
2023-03-06T12:04:02.597Z,8.50
2023-03-06T12:07:28.838Z,7.30
2023-03-06T12:10:42.587Z,7.00
2023-03-06T12:14:04.268Z,6.80
2023-03-06T12:17:36.613Z,7.20
2023-03-06T12:21:05.173Z,8.80
2023-03-06T12:24:32.531Z,8.30
2023-03-06T12:27:50.978Z,9.00
2023-03-06T12:31:45.195Z,7.40
2023-03-06T12:35:23.635Z,7.80
2023-03-06T12:38:54.702Z,7.90
2023-03-06T12:42:23.115Z,7.80
2023-03-06T12:45:33.052Z,7.80
2023-03-06T12:48:41.080Z,9.90
2023-03-06T12:51:47.262Z,7.60
2023-03-06T12:54:51.807Z,6.10
2023-03-06T12:57:57.312Z,7.90
2023-03-06T13:01:09.180Z,7.90
2023-03-06T13:04:49.085Z,7.90
2023-03-06T13:08:18.998Z,7.90
2023-03-06T13:11:55.588Z,9.20
2023-03-06T13:15:33.471Z,7.80
2023-03-06T13:19:11.475Z,7.80
2023-03-06T13:22:29.033Z,7.90
2023-03-06T13:25:48.842Z,7.90
2023-03-06T13:28:54.988Z,8.70
2023-03-06T13:32:20.522Z,8.00
2023-03-06T13:35:56.270Z,7.90
2023-03-06T13:39:09.588Z,7.90
2023-03-06T13:42:28.848Z,7.90
2023-03-06T13:45:39.023Z,7.90
2023-03-06T13:48:46.304Z,7.80
2023-03-06T13:52:09.861Z,7.90
2023-03-06T13:55:27.711Z,7.90
2023-03-06T13:59:06.115Z,7.80
2023-03-06T14:02:50.413Z,8.90
2023-03-06T14:05:56.226Z,7.90
2023-03-06T14:09:01.571Z,7.90
2023-03-06T14:12:19.118Z,7.90
2023-03-06T14:15:26.920Z,7.90
2023-03-06T14:18:39.204Z,7.90
2023-03-06T14:21:56.939Z,8.40
2023-03-06T14:25:14.992Z,7.90
2023-03-06T14:28:27.921Z,7.90
2023-03-06T14:31:37.492Z,7.80
2023-03-06T14:34:47.209Z,7.80
2023-03-06T14:37:57.375Z,7.70
2023-03-06T14:47:26.643Z,8.00
2023-03-06T14:50:35.222Z,7.90
2023-03-06T14:53:40.464Z,6.70
2023-03-06T14:56:47.040Z,7.60
2023-03-06T14:59:58.395Z,7.70
2023-03-06T15:03:06.143Z,7.70
2023-03-06T15:06:15.983Z,7.40
2023-03-06T15:09:31.997Z,9.50
2023-03-06T15:12:38.947Z,7.60
2023-03-06T15:18:59.071Z,7.40
2023-03-06T15:22:03.084Z,7.40
2023-03-06T15:25:30.146Z,7.40
2023-03-06T15:28:38.758Z,7.30
2023-03-06T15:31:45.694Z,7.40
2023-03-06T15:35:09.789Z,7.20
2023-03-06T15:38:28.583Z,7.20
2023-03-06T15:41:37.718Z,7.10
2023-03-06T15:44:41.634Z,7.00
2023-03-06T15:47:47.380Z,7.00
2023-03-06T15:50:51.697Z,7.00
2023-03-06T15:54:09.761Z,6.90
2023-03-06T15:57:24.925Z,8.30
2023-03-06T16:00:34.250Z,6.80
2023-03-06T16:03:39.093Z,6.70
2023-03-06T16:06:44.636Z,6.70
2023-03-06T16:09:47.959Z,5.50
2023-03-06T16:12:58.532Z,6.50
2023-03-06T16:16:04.165Z,6.40
2023-03-06T16:19:25.885Z,6.30
2023-03-06T16:22:33.696Z,6.20
2023-03-06T16:25:41.035Z,6.10
2023-03-06T16:28:47.422Z,6.00
2023-03-06T16:31:51.899Z,5.90
2023-03-06T16:34:55.399Z,5.80
2023-03-06T16:38:02.154Z,5.70
2023-03-06T16:41:07.098Z,5.10
2023-03-06T16:44:12.454Z,5.60
2023-03-06T16:47:16.230Z,7.60
2023-03-06T16:50:29.280Z,5.90
2023-03-06T16:53:33.188Z,5.40
2023-03-06T16:56:48.058Z,5.30
2023-03-06T16:59:55.363Z,5.30
2023-03-06T17:03:05.684Z,5.20
2023-03-06T17:06:21.087Z,5.20
2023-03-06T17:09:25.626Z,5.00
2023-03-06T17:12:29.422Z,6.10
2023-03-06T17:19:00.901Z,5.20
2023-03-06T17:25:13.315Z,5.30
2023-03-06T17:28:18.465Z,5.30
2023-03-06T17:31:28.223Z,5.50
2023-03-06T17:34:33.425Z,5.20
2023-03-06T17:37:38.667Z,5.20
2023-03-06T17:41:00.553Z,6.60
2023-03-06T17:44:16.440Z,5.70
2023-03-06T17:47:22.169Z,6.50
2023-03-06T17:53:40.960Z,6.10
2023-03-06T17:56:44.960Z,5.00
2023-03-06T18:03:06.082Z,4.90
2023-03-06T21:11:51.150Z,7.00
2023-03-06T21:18:04.603Z,5.90
2023-03-06T21:21:11.117Z,5.70
2023-03-06T21:24:15.192Z,6.10
2023-03-06T21:27:21.542Z,5.80
2023-03-06T21:33:34.715Z,9.40
2023-03-06T21:42:49.856Z,5.90
2023-03-06T21:45:58.909Z,4.00
2023-03-06T21:49:41.436Z,7.20
2023-03-06T21:56:01.512Z,5.70
2023-03-06T22:02:42.827Z,6.00
2023-03-06T22:05:46.481Z,6.00
2023-03-06T22:08:50.737Z,6.00
2023-03-06T22:11:54.751Z,8.10
2023-03-06T22:15:02.220Z,5.90
2023-03-06T22:18:07.409Z,5.80
2023-03-06T22:21:16.496Z,5.80
2023-03-06T22:27:32.126Z,5.60
2023-03-06T22:30:40.794Z,5.00
2023-03-06T22:33:46.582Z,5.70
2023-03-06T22:36:50.721Z,5.70
2023-03-06T22:39:54.789Z,5.70
2023-03-06T22:42:59.046Z,5.70
2023-03-06T22:46:09.719Z,5.70
2023-03-06T22:49:19.270Z,5.70
2023-03-06T22:52:22.655Z,5.70
2023-03-06T22:58:37.210Z,5.90
2023-03-06T23:01:43.310Z,5.90
2023-03-06T23:04:52.416Z,5.80
2023-03-06T23:07:56.244Z,5.70
2023-03-06T23:11:00.440Z,5.80
2023-03-06T23:14:07.062Z,5.70
2023-03-06T23:17:12.712Z,5.80
2023-03-06T23:20:16.495Z,7.00
2023-03-06T23:23:19.975Z,5.80
2023-03-06T23:26:29.024Z,5.70
2023-03-06T23:29:33.041Z,5.80
2023-03-06T23:32:38.119Z,6.70
2023-03-06T23:35:43.637Z,5.80
2023-03-06T23:38:48.954Z,5.70
2023-03-06T23:41:52.796Z,5.70
2023-03-06T23:44:56.482Z,7.70
2023-03-06T23:48:01.944Z,5.70
2023-03-06T23:51:09.440Z,5.80
2023-03-06T23:54:13.032Z,5.80
